Time;durP1;ratioP1;P1;durP2;ratioP2;P2;SDS_P1;SDS_P2;PMS_P1;PMS_P2;Temp;Humidity;BMP_temperature;BMP_pressure;BME280_temperature;BME280_humidity;BME280_pressure;Samples;Min_cycle;Max_cycle;Signal;HPM_P1;HPM_P2
2021/07/16 00:01:49;;;;;;;;;4.75;4.75;;;;;22.87;54.80;101653.28;5077743;28;61520;-60
2021/07/16 00:04:14;;;;;;;;;3.00;3.00;;;;;22.91;54.87;101653.22;5044822;28;58766;-60
2021/07/16 00:06:40;;;;;;;;;5.00;4.00;;;;;22.90;54.66;101660.28;5045972;28;45454;-60
2021/07/16 00:09:06;;;;;;;;;4.50;4.50;;;;;22.90;54.52;101646.16;5043956;28;52555;-59
2021/07/16 00:11:31;;;;;;;;;2.00;2.00;;;;;22.88;54.82;101657.66;5053519;28;45444;-60
2021/07/16 00:13:57;;;;;;;;;3.00;3.00;;;;;22.88;54.49;101655.00;5039638;28;45352;-60
2021/07/16 00:16:22;;;;;;;;;4.75;4.00;;;;;22.89;54.71;101642.63;5040454;28;56008;-59
2021/07/16 00:18:48;;;;;;;;;5.50;4.00;;;;;22.88;54.43;101654.13;5039570;28;45307;-59
2021/07/16 00:21:13;;;;;;;;;4.25;3.50;;;;;22.89;54.12;101647.94;5040172;28;52161;-59
2021/07/16 00:23:39;;;;;;;;;4.50;4.50;;;;;22.89;54.70;101645.28;5062368;28;45225;-60
2021/07/16 00:26:04;;;;;;;;;6.00;6.00;;;;;22.88;54.31;101641.75;5062995;28;45385;-59
2021/07/16 00:28:30;;;;;;;;;6.00;4.00;;;;;22.89;54.60;101647.94;5049319;28;45345;-59
2021/07/16 00:30:55;;;;;;;;;4.50;3.50;;;;;22.88;54.61;101651.47;5042146;28;46289;-60
2021/07/16 00:33:21;;;;;;;;;4.00;4.00;;;;;22.87;54.30;101645.31;5051014;28;45322;-59
2021/07/16 00:35:46;;;;;;;;;5.00;3.50;;;;;22.87;54.42;101653.28;5050030;28;45691;-60
2021/07/16 00:38:12;;;;;;;;;6.00;4.25;;;;;22.87;54.48;101644.41;5049307;28;45422;-60
2021/07/16 00:40:38;;;;;;;;;3.00;3.00;;;;;22.87;54.67;101641.75;5048566;28;47087;-59
2021/07/16 00:43:04;;;;;;;;;5.75;4.50;;;;;22.87;54.54;101644.41;5044124;28;45429;-60
2021/07/16 00:45:29;;;;;;;;;4.00;4.00;;;;;22.87;54.61;101645.31;5049693;28;53812;-60
2021/07/16 00:47:54;;;;;;;;;6.50;4.25;;;;;22.88;54.47;101651.47;5038825;28;45517;-59
2021/07/16 00:50:22;;;;;;;;;4.00;4.00;;;;;22.87;54.57;101650.63;5039638;28;46918;-60
2021/07/16 00:52:48;;;;;;;;;5.75;4.00;;;;;22.88;54.38;101648.81;5051048;28;45438;-59
2021/07/16 00:55:14;;;;;;;;;4.00;4.00;;;;;22.87;54.62;101657.66;5059055;28;45464;-59
2021/07/16 00:57:39;;;;;;;;;5.00;5.00;;;;;22.88;54.58;101662.09;5023950;28;45347;-59
2021/07/16 01:00:06;;;;;;;;;4.75;4.00;;;;;22.85;54.42;101648.88;5045523;28;46287;-59
2021/07/16 01:02:32;;;;;;;;;4.25;4.00;;;;;22.87;54.04;101658.56;5047417;28;45441;-59
2021/07/16 01:04:57;;;;;;;;;4.50;4.50;;;;;22.87;54.23;101652.38;5004483;28;45421;-59
2021/07/16 01:07:23;;;;;;;;;4.25;4.25;;;;;22.87;54.16;101655.03;5066549;28;45474;-60
2021/07/16 01:09:50;;;;;;;;;5.25;4.25;;;;;22.86;54.84;101650.59;5066847;28;46609;-60
2021/07/16 01:12:19;;;;;;;;;4.50;4.00;;;;;22.87;54.09;101655.03;5044991;28;45188;-59
2021/07/16 01:14:44;;;;;;;;;4.50;3.50;;;;;22.84;54.62;101650.63;5027404;28;45482;-59
2021/07/16 01:17:10;;;;;;;;;4.00;4.00;;;;;22.86;54.69;101658.56;5024401;28;45471;-59
2021/07/16 01:19:49;;;;;;;;;4.25;3.25;;;;;22.87;54.69;101655.03;5031474;28;57658;-59
2021/07/16 01:22:15;;;;;;;;;4.25;4.25;;;;;22.86;54.54;101653.25;5047038;28;45391;-59
2021/07/16 01:24:40;;;;;;;;;5.00;4.00;;;;;22.85;54.97;101662.13;5058417;28;45517;-59
2021/07/16 01:27:06;;;;;;;;;4.25;4.25;;;;;22.87;54.68;101661.22;5040615;28;46874;-59
2021/07/16 01:29:31;;;;;;;;;3.00;2.00;;;;;22.87;54.53;101660.31;5057816;28;65405;-59
2021/07/16 01:31:56;;;;;;;;;5.00;4.00;;;;;22.85;54.28;101657.69;5056232;28;55303;-59
2021/07/16 01:34:22;;;;;;;;;3.50;3.50;;;;;22.86;54.80;101662.09;5056281;28;55593;-59
2021/07/16 01:36:47;;;;;;;;;4.25;4.25;;;;;22.87;54.63;101658.56;5034825;28;47334;-60
2021/07/16 01:39:13;;;;;;;;;5.75;4.75;;;;;22.86;54.63;101656.81;5045189;28;61799;-60
2021/07/16 01:41:38;;;;;;;;;4.25;4.25;;;;;22.86;54.65;101654.16;5038271;28;45428;-59
2021/07/16 01:44:06;;;;;;;;;4.50;3.25;;;;;22.87;54.93;101655.03;5053203;28;46034;-60
2021/07/16 01:46:31;;;;;;;;;3.75;3.75;;;;;22.86;54.31;101650.59;5045713;28;45400;-59
2021/07/16 01:48:57;;;;;;;;;3.75;3.75;;;;;22.87;54.93;101661.22;5034642;28;45340;-60
2021/07/16 01:51:22;;;;;;;;;5.25;4.50;;;;;22.87;54.72;101653.28;5019490;28;55684;-61
2021/07/16 01:53:48;;;;;;;;;4.00;3.00;;;;;22.88;54.90;101657.66;5035604;28;47195;-60
2021/07/16 01:56:13;;;;;;;;;4.00;4.00;;;;;22.88;54.70;101654.13;5004226;28;45332;-60
2021/07/16 01:58:38;;;;;;;;;7.00;3.25;;;;;22.87;54.74;101655.91;5048775;28;45517;-59
2021/07/16 02:01:10;;;;;;;;;4.00;4.00;;;;;22.87;54.64;101662.97;5037272;28;59897;-59
2021/07/16 02:03:35;;;;;;;;;4.00;4.00;;;;;22.87;54.65;101660.31;5023526;28;45366;-59
2021/07/16 02:06:00;;;;;;;;;4.50;4.50;;;;;22.87;54.78;101660.31;5017639;28;53553;-59
2021/07/16 02:08:26;;;;;;;;;6.00;6.00;;;;;22.87;54.80;101658.56;5018900;28;56507;-59
2021/07/16 02:10:53;;;;;;;;;5.25;4.00;;;;;22.83;54.67;101656.84;5037362;28;47113;-59
2021/07/16 02:13:18;;;;;;;;;3.75;3.75;;;;;22.87;54.67;101655.91;5027372;28;45314;-59
2021/07/16 02:15:45;;;;;;;;;5.25;5.00;;;;;22.87;54.69;101649.72;5018088;28;45343;-59
2021/07/16 02:18:10;;;;;;;;;3.75;3.75;;;;;22.88;54.70;101656.78;5025652;28;46012;-60
2021/07/16 02:20:37;;;;;;;;;3.50;3.00;;;;;22.88;54.56;101651.47;5034546;28;45436;-59
2021/07/16 02:23:05;;;;;;;;;5.00;5.00;;;;;22.88;55.01;101643.53;5039647;28;45432;-60
2021/07/16 02:25:30;;;;;;;;;5.00;4.00;;;;;22.87;54.64;101655.91;5045529;28;45528;-59
2021/07/16 02:28:06;;;;;;;;;3.00;3.00;;;;;22.88;54.69;101648.81;5057141;28;56616;-59
2021/07/16 02:30:31;;;;;;;;;5.75;4.50;;;;;22.87;54.37;101645.31;5030884;28;45298;-59
2021/07/16 02:32:57;;;;;;;;;5.00;5.00;;;;;22.87;54.78;101652.38;5017230;28;52292;-60
2021/07/16 02:35:23;;;;;;;;;4.75;3.25;;;;;22.88;54.90;101656.78;5017724;28;45448;-60
2021/07/16 02:37:48;;;;;;;;;4.25;4.00;;;;;22.87;54.32;101647.06;5017391;28;45460;-60
2021/07/16 02:40:14;;;;;;;;;4.00;4.00;;;;;22.87;54.84;101647.97;5023608;28;45259;-60
2021/07/16 02:42:40;;;;;;;;;4.50;3.50;;;;;22.87;54.53;101655.91;5017273;28;45650;-60
2021/07/16 02:45:07;;;;;;;;;8.25;4.00;;;;;22.87;54.92;101647.06;5019975;28;45419;-59
2021/07/16 02:47:33;;;;;;;;;4.00;3.00;;;;;22.87;54.84;101647.06;5020123;28;45956;-59
2021/07/16 02:49:59;;;;;;;;;5.00;5.00;;;;;22.86;54.63;101643.56;5038263;28;45535;-59
2021/07/16 02:52:24;;;;;;;;;4.00;3.75;;;;;22.86;55.04;101648.84;5036834;28;53931;-59
2021/07/16 02:54:50;;;;;;;;;5.00;4.00;;;;;22.82;55.14;101643.59;5037248;28;45448;-59
2021/07/16 02:57:15;;;;;;;;;6.00;5.00;;;;;22.88;54.79;101651.47;5055139;28;58926;-60
2021/07/16 02:59:40;;;;;;;;;3.25;3.25;;;;;22.87;55.07;101663.88;5057304;28;55136;-59
2021/07/16 03:02:08;;;;;;;;;4.00;4.00;;;;;22.87;54.78;101655.03;5060011;28;45635;-59
2021/07/16 03:04:33;;;;;;;;;3.00;3.00;;;;;22.86;54.79;101654.16;5061136;28;45360;-59
2021/07/16 03:06:58;;;;;;;;;4.00;4.00;;;;;22.86;54.73;101655.91;5060568;28;45501;-59
2021/07/16 03:09:24;;;;;;;;;4.00;4.00;;;;;22.86;54.88;101656.81;5059281;28;56564;-60
2021/07/16 03:11:49;;;;;;;;;3.00;3.00;;;;;22.86;54.92;101647.94;5058595;28;45588;-60
2021/07/16 03:14:15;;;;;;;;;4.25;4.00;;;;;22.85;55.00;101655.03;5060417;28;49584;-60
2021/07/16 03:16:40;;;;;;;;;3.25;3.25;;;;;22.85;54.29;101651.53;5060525;28;45824;-60
2021/07/16 03:19:05;;;;;;;;;5.00;5.00;;;;;22.85;54.64;101656.81;5060453;28;45179;-60
2021/07/16 03:21:34;;;;;;;;;2.75;2.25;;;;;22.84;54.93;101650.63;5058639;28;45431;-60
2021/07/16 03:24:00;;;;;;;;;6.00;4.00;;;;;22.84;54.67;101652.41;5060918;28;45491;-59
2021/07/16 03:26:25;;;;;;;;;5.00;3.75;;;;;22.85;54.49;101662.13;5059938;28;46328;-60
2021/07/16 03:28:50;;;;;;;;;4.50;4.50;;;;;22.86;55.06;101661.22;5059846;28;57323;-59
2021/07/16 03:31:16;;;;;;;;;3.75;3.75;;;;;22.85;54.64;101662.13;5044246;28;51007;-60
2021/07/16 03:33:41;;;;;;;;;5.25;4.00;;;;;22.83;54.73;101669.22;5051040;28;46324;-60
2021/07/16 03:36:07;;;;;;;;;3.50;3.00;;;;;22.84;55.07;101649.75;5059849;28;54535;-59
2021/07/16 03:38:33;;;;;;;;;5.75;4.00;;;;;22.82;54.42;101652.44;5060300;28;45447;-60
2021/07/16 03:41:00;;;;;;;;;3.50;3.00;;;;;22.83;54.72;101664.81;5059610;28;45372;-59
2021/07/16 03:43:26;;;;;;;;;4.50;4.00;;;;;22.83;54.97;101667.44;5055347;28;45413;-60
2021/07/16 03:45:51;;;;;;;;;3.50;3.50;;;;;22.83;54.59;101663.91;5039695;28;57284;-59
2021/07/16 03:48:17;;;;;;;;;5.00;4.00;;;;;22.83;54.37;101664.81;5039511;28;45337;-60
2021/07/16 03:50:42;;;;;;;;;3.00;3.00;;;;;22.82;54.28;101664.78;5040089;28;45212;-60
2021/07/16 03:53:08;;;;;;;;;4.25;4.00;;;;;22.83;54.88;101659.50;5041248;28;45231;-59
2021/07/16 03:55:33;;;;;;;;;3.75;3.00;;;;;22.83;54.98;101658.59;5045712;28;61068;-59
2021/07/16 03:57:59;;;;;;;;;2.50;2.50;;;;;22.83;54.74;101661.25;5039503;28;49282;-59
2021/07/16 04:00:28;;;;;;;;;5.00;3.75;;;;;22.82;54.72;101659.50;5039899;28;45341;-59
2021/07/16 04:02:54;;;;;;;;;5.50;5.00;;;;;22.82;54.62;101656.84;5041010;28;45355;-59
2021/07/16 04:05:19;;;;;;;;;2.75;2.75;;;;;22.82;54.75;101656.84;5039857;28;45420;-59
2021/07/16 04:07:50;;;;;;;;;4.25;4.25;;;;;22.81;54.66;101655.97;5039640;28;45467;-59
2021/07/16 04:10:17;;;;;;;;;2.25;2.25;;;;;22.82;54.52;101659.50;5022273;28;45290;-59
2021/07/16 04:12:43;;;;;;;;;5.25;3.75;;;;;22.81;54.63;101653.31;5040706;28;45493;-59
2021/07/16 04:15:09;;;;;;;;;2.25;2.25;;;;;22.81;54.67;101655.09;5034596;28;47000;-59
2021/07/16 04:17:34;;;;;;;;;4.50;3.00;;;;;22.77;54.74;101648.09;5055396;28;45254;-59
2021/07/16 04:20:00;;;;;;;;;5.00;3.75;;;;;22.80;54.41;101659.50;5038890;28;56413;-59
2021/07/16 04:22:25;;;;;;;;;3.25;3.25;;;;;22.80;54.56;101656.00;5039434;28;46041;-60
2021/07/16 04:24:51;;;;;;;;;3.25;3.25;;;;;22.81;54.88;101660.41;5038994;28;46088;-59
2021/07/16 04:27:17;;;;;;;;;1.75;1.75;;;;;22.80;54.45;101659.50;5039474;28;45462;-59
2021/07/16 04:29:43;;;;;;;;;4.00;2.75;;;;;22.81;54.59;101657.75;5021617;28;45486;-60
2021/07/16 04:32:08;;;;;;;;;4.00;3.25;;;;;22.79;54.98;101660.44;5039491;28;45302;-59
2021/07/16 04:34:35;;;;;;;;;2.00;2.00;;;;;22.80;54.82;101669.25;5040122;28;46040;-59
2021/07/16 04:37:01;;;;;;;;;3.00;3.00;;;;;22.78;54.92;101661.31;5048341;28;45466;-59
2021/07/16 04:39:26;;;;;;;;;6.00;3.00;;;;;22.78;54.72;101666.63;5059141;28;45472;-60
2021/07/16 04:41:51;;;;;;;;;2.00;2.00;;;;;22.79;54.40;101668.38;5059036;28;46890;-60
2021/07/16 04:44:17;;;;;;;;;3.25;3.25;;;;;22.79;54.55;101672.78;5048779;28;56004;-60
2021/07/16 04:46:42;;;;;;;;;2.00;2.00;;;;;22.79;54.91;101675.44;5042278;28;58830;-59
2021/07/16 04:49:08;;;;;;;;;2.00;2.00;;;;;22.79;54.72;101675.44;5045210;28;55235;-59
2021/07/16 04:51:34;;;;;;;;;2.75;2.75;;;;;22.79;54.78;101672.78;5039071;28;45402;-59
2021/07/16 04:53:59;;;;;;;;;4.25;3.00;;;;;22.79;54.87;101675.44;5039023;28;47196;-59
2021/07/16 04:56:25;;;;;;;;;2.25;2.25;;;;;22.79;55.00;101680.75;5042372;28;45364;-60
2021/07/16 04:58:51;;;;;;;;;3.00;3.00;;;;;22.78;54.87;101685.19;5057365;28;46696;-60
2021/07/16 05:01:16;;;;;;;;;5.00;3.00;;;;;22.78;54.78;101681.63;5048279;28;45155;-59
2021/07/16 05:03:42;;;;;;;;;2.00;2.00;;;;;22.77;54.75;101680.75;5038641;28;45539;-59
2021/07/16 05:06:08;;;;;;;;;2.00;2.00;;;;;22.77;54.46;101682.56;5039509;28;45374;-60
2021/07/16 05:08:33;;;;;;;;;2.25;2.25;;;;;22.77;54.65;101679.91;5043110;28;45171;-59
2021/07/16 05:10:58;;;;;;;;;7.00;3.00;;;;;22.77;54.70;101685.19;5058181;28;45463;-60
2021/07/16 05:13:26;;;;;;;;;3.00;2.50;;;;;22.76;54.72;101678.13;5054918;28;57309;-60
2021/07/16 05:15:51;;;;;;;;;3.75;3.00;;;;;22.76;54.80;101675.47;5039853;28;45777;-60
2021/07/16 05:18:17;;;;;;;;;3.00;3.00;;;;;22.77;54.76;101682.56;5045854;28;45437;-60
2021/07/16 05:20:43;;;;;;;;;2.25;2.25;;;;;22.76;54.48;101683.44;5056379;28;45308;-61
2021/07/16 05:23:09;;;;;;;;;3.00;2.00;;;;;22.75;54.17;101690.53;5057386;28;46258;-60
2021/07/16 05:25:34;;;;;;;;;4.25;2.25;;;;;22.70;54.27;101689.69;5054116;28;45530;-60
2021/07/16 05:27:59;;;;;;;;;2.50;2.25;;;;;22.66;54.20;101687.97;5041132;28;45467;-59
2021/07/16 05:30:25;;;;;;;;;3.00;3.00;;;;;22.66;54.71;101687.97;5049049;28;45440;-60
2021/07/16 05:32:50;;;;;;;;;4.00;3.00;;;;;22.66;54.58;101687.97;5038019;28;45394;-60
2021/07/16 05:35:20;;;;;;;;;2.75;2.75;;;;;22.65;54.53;101692.38;5037978;28;55085;-60
2021/07/16 05:37:46;;;;;;;;;5.00;3.25;;;;;22.67;54.33;101698.53;5039445;28;45514;-59
2021/07/16 05:40:12;;;;;;;;;2.00;2.00;;;;;22.68;54.61;101700.31;5044501;28;45386;-60
2021/07/16 05:42:37;;;;;;;;;2.75;2.00;;;;;22.67;54.68;101695.91;5057805;28;45407;-60
2021/07/16 05:45:03;;;;;;;;;2.25;2.25;;;;;22.70;54.54;101694.97;5063398;28;53800;-59
2021/07/16 05:47:28;;;;;;;;;4.00;3.00;;;;;22.70;55.36;101694.97;5044744;28;45661;-61
2021/07/16 05:49:54;;;;;;;;;4.00;3.00;;;;;22.72;55.19;101694.97;5054949;28;45316;-62
2021/07/16 05:52:19;;;;;;;;;2.00;2.00;;;;;22.71;55.14;101704.69;5052949;28;47157;-65
2021/07/16 05:54:44;;;;;;;;;1.75;1.75;;;;;22.72;55.25;101702.91;5070462;28;53046;-65
2021/07/16 05:57:10;;;;;;;;;2.50;2.50;;;;;22.72;55.21;101705.56;5058648;28;45547;-65
2021/07/16 05:59:35;;;;;;;;;6.00;3.75;;;;;22.72;54.98;101718.81;5056529;28;50891;-65
2021/07/16 06:02:02;;;;;;;;;3.00;3.00;;;;;22.70;55.07;101711.75;5056073;28;62413;-65
2021/07/16 06:04:27;;;;;;;;;2.00;2.00;;;;;22.71;54.71;101715.31;5057157;28;45305;-65
2021/07/16 06:06:53;;;;;;;;;2.50;2.50;;;;;22.70;54.76;101719.69;5057435;28;45411;-65
2021/07/16 06:09:18;;;;;;;;;3.00;3.00;;;;;22.71;54.83;101717.94;5057625;28;45355;-65
2021/07/16 06:11:43;;;;;;;;;1.00;1.00;;;;;22.70;54.92;101722.34;5056652;28;57959;-65
2021/07/16 06:14:09;;;;;;;;;2.75;2.00;;;;;22.70;54.71;101711.75;5057200;28;45493;-65
2021/07/16 06:16:34;;;;;;;;;2.00;2.00;;;;;22.70;54.67;101722.34;5057229;28;45428;-65
2021/07/16 06:19:00;;;;;;;;;3.00;1.75;;;;;22.70;55.05;101725.00;5057437;28;45365;-65
2021/07/16 06:21:25;;;;;;;;;3.00;3.00;;;;;22.69;54.93;101725.88;5056440;28;56953;-65
2021/07/16 06:23:51;;;;;;;;;2.00;2.00;;;;;22.70;54.69;101732.09;5056824;28;53625;-65
2021/07/16 06:26:16;;;;;;;;;2.75;2.00;;;;;22.70;55.15;101732.94;5057075;28;45536;-65
2021/07/16 06:28:41;;;;;;;;;2.00;2.00;;;;;22.69;55.07;101738.28;5056987;28;45463;-65
2021/07/16 06:31:07;;;;;;;;;3.00;3.00;;;;;22.69;55.23;101741.78;5057048;28;45783;-65
2021/07/16 06:33:32;;;;;;;;;2.50;2.25;;;;;22.70;55.26;101740.03;5056016;28;54667;-65
2021/07/16 06:35:58;;;;;;;;;2.00;2.00;;;;;22.69;54.93;101740.94;5056675;28;52843;-65
2021/07/16 06:38:23;;;;;;;;;3.00;2.00;;;;;22.69;55.21;101751.53;5056960;28;45314;-65
2021/07/16 06:40:50;;;;;;;;;3.00;1.75;;;;;22.69;55.11;101751.53;5056604;28;46037;-65
2021/07/16 06:43:16;;;;;;;;;2.50;2.50;;;;;22.68;55.13;101750.66;5056631;28;45550;-65
2021/07/16 06:45:41;;;;;;;;;1.00;1.00;;;;;22.69;55.12;101751.53;5056742;28;45462;-65
2021/07/16 06:48:06;;;;;;;;;2.25;1.00;;;;;22.69;55.28;101756.81;5056210;28;50305;-65
2021/07/16 06:50:32;;;;;;;;;2.00;2.00;;;;;22.69;55.41;101754.19;5056725;28;52601;-65
2021/07/16 06:52:58;;;;;;;;;1.75;1.75;;;;;22.68;55.31;101750.66;5056271;28;51908;-65
2021/07/16 06:55:24;;;;;;;;;2.00;2.00;;;;;22.68;55.13;101750.66;5056953;28;45490;-66
2021/07/16 06:57:49;;;;;;;;;3.50;3.00;;;;;22.69;55.30;101762.13;5056958;28;45359;-64
2021/07/16 07:00:15;;;;;;;;;2.50;1.00;;;;;22.70;55.20;101764.75;5055879;28;54264;-65
2021/07/16 07:02:41;;;;;;;;;3.50;2.00;;;;;22.70;55.44;101763.88;5056353;28;45381;-65
2021/07/16 07:05:07;;;;;;;;;1.00;1.00;;;;;22.69;55.78;101765.66;5056571;28;45379;-65
2021/07/16 07:07:32;;;;;;;;;1.50;1.50;;;;;22.70;55.34;101769.19;5056851;28;45282;-65
2021/07/16 07:09:57;;;;;;;;;1.00;1.00;;;;;22.70;55.65;101763.88;5056226;28;45882;-65
2021/07/16 07:12:23;;;;;;;;;2.00;2.00;;;;;22.68;55.64;101769.22;5055129;28;50588;-65
2021/07/16 07:14:48;;;;;;;;;3.00;2.00;;;;;22.69;55.30;101778.03;5055788;28;45364;-64
2021/07/16 07:17:13;;;;;;;;;3.00;1.50;;;;;22.69;55.53;101768.28;5056156;28;45525;-67
2021/07/16 07:19:39;;;;;;;;;2.50;2.00;;;;;22.69;55.52;101778.03;5055785;28;60774;-67
2021/07/16 07:22:04;;;;;;;;;1.00;1.00;;;;;22.69;55.52;101778.91;5055900;28;53245;-67
2021/07/16 07:24:30;;;;;;;;;3.00;1.00;;;;;22.70;55.72;101779.78;5056349;28;45374;-67
2021/07/16 07:26:57;;;;;;;;;1.00;1.00;;;;;22.69;55.57;101773.59;5055999;28;45439;-67
2021/07/16 07:29:23;;;;;;;;;1.00;1.00;;;;;22.66;55.70;101778.94;5055631;28;46973;-67
2021/07/16 07:31:49;;;;;;;;;2.00;2.00;;;;;22.68;55.30;101770.97;5056133;28;45526;-67
2021/07/16 07:34:14;;;;;;;;;1.00;1.00;;;;;22.68;55.60;101771.88;5056034;28;51347;-67
2021/07/16 07:36:39;;;;;;;;;3.00;1.50;;;;;22.68;55.47;101782.47;5056494;28;45373;-67
2021/07/16 07:39:05;;;;;;;;;2.00;1.00;;;;;22.67;55.50;101775.41;5055686;28;59692;-67
2021/07/16 07:41:30;;;;;;;;;2.00;1.75;;;;;22.66;55.54;101778.06;5055376;28;53197;-67
2021/07/16 07:43:56;;;;;;;;;3.00;2.00;;;;;22.67;55.66;101783.34;5055560;28;54164;-67
2021/07/16 07:46:23;;;;;;;;;1.25;1.25;;;;;22.68;55.49;101784.22;5058845;28;45456;-67
2021/07/16 07:48:48;;;;;;;;;1.00;1.00;;;;;22.67;55.18;101775.41;5059296;28;46243;-67
2021/07/16 07:51:14;;;;;;;;;1.00;1.00;;;;;22.68;55.45;101782.47;5058959;28;56744;-67
2021/07/16 07:53:39;;;;;;;;;2.00;2.00;;;;;22.67;55.77;101780.69;5058441;28;51536;-67
2021/07/16 07:56:05;;;;;;;;;1.00;1.00;;;;;22.67;55.46;101788.66;5068053;28;49461;-67
2021/07/16 07:58:30;;;;;;;;;1.00;1.00;;;;;22.67;55.37;101788.66;5079570;28;46458;-67
2021/07/16 08:00:56;;;;;;;;;2.00;1.00;;;;;22.66;55.48;101792.19;5079113;28;45436;-67
2021/07/16 08:03:21;;;;;;;;;1.00;1.00;;;;;22.66;55.44;101788.66;5079691;28;45734;-67
2021/07/16 08:05:46;;;;;;;;;2.25;1.00;;;;;22.66;55.68;101794.84;5079776;28;45444;-67
2021/07/16 08:08:12;;;;;;;;;1.50;1.00;;;;;22.66;55.26;101797.47;5078907;28;61725;-67
2021/07/16 08:10:37;;;;;;;;;2.00;1.00;;;;;22.66;55.37;101799.28;5079308;28;49838;-67
2021/07/16 08:13:04;;;;;;;;;1.50;1.00;;;;;22.66;55.51;101802.78;5079292;28;49046;-67
2021/07/16 08:15:29;;;;;;;;;1.00;1.00;;;;;22.66;55.38;101801.91;5079461;28;45480;-67
2021/07/16 08:17:55;;;;;;;;;1.00;1.00;;;;;22.65;55.57;101808.97;5078902;28;46062;-67
2021/07/16 08:20:20;;;;;;;;;1.00;1.00;;;;;22.66;55.58;101807.22;5079144;28;45399;-67
2021/07/16 08:22:46;;;;;;;;;1.75;1.00;;;;;22.66;55.52;101804.56;5079390;28;45547;-67
2021/07/16 08:25:11;;;;;;;;;1.00;1.00;;;;;22.66;55.45;101808.09;5079425;28;45468;-67
2021/07/16 08:27:37;;;;;;;;;0.00;0.00;;;;;22.65;55.18;101803.66;5079208;28;47250;-67
2021/07/16 08:30:03;;;;;;;;;1.00;1.00;;;;;22.66;55.13;101812.53;5078937;28;45407;-67
2021/07/16 08:32:29;;;;;;;;;1.00;1.00;;;;;22.65;55.33;101814.28;5079219;28;45503;-67
2021/07/16 08:34:54;;;;;;;;;0.00;0.00;;;;;22.64;55.18;101811.63;5065450;28;47960;-67
2021/07/16 08:37:19;;;;;;;;;2.00;0.75;;;;;22.64;55.17;101807.22;5058271;28;59612;-67
2021/07/16 08:39:45;;;;;;;;;0.75;0.50;;;;;22.66;55.26;101807.22;5058601;28;47454;-67
2021/07/16 08:42:12;;;;;;;;;0.25;0.25;;;;;22.66;54.92;101810.72;5058669;28;45326;-67
2021/07/16 08:44:38;;;;;;;;;2.75;0.50;;;;;22.65;55.20;101814.28;5041150;28;45572;-67
2021/07/16 08:47:03;;;;;;;;;3.50;2.00;;;;;22.66;55.19;101813.38;5039997;28;56707;-66
2021/07/16 08:49:29;;;;;;;;;4.00;1.00;;;;;22.65;54.97;101824.88;5058176;28;45410;-65
2021/07/16 08:51:54;;;;;;;;;2.00;0.00;;;;;22.64;55.40;101822.22;5023597;28;57081;-65
2021/07/16 08:54:20;;;;;;;;;0.00;0.00;;;;;22.66;55.22;101825.78;5040723;28;45612;-64
2021/07/16 08:56:45;;;;;;;;;1.00;1.00;;;;;22.66;55.32;101812.53;5057955;28;46135;-65
2021/07/16 08:59:13;;;;;;;;;1.00;1.00;;;;;22.66;55.38;101821.34;5058368;28;45493;-65
2021/07/16 09:01:40;;;;;;;;;0.75;0.75;;;;;22.66;55.32;101815.16;5040089;28;45443;-65
2021/07/16 09:04:06;;;;;;;;;3.00;1.00;;;;;22.66;55.26;101829.28;5058452;28;45483;-65
2021/07/16 09:06:47;;;;;;;;;1.00;1.00;;;;;22.67;55.54;101820.44;5058114;28;46084;-64
2021/07/16 09:09:13;;;;;;;;;2.00;0.50;;;;;22.67;55.26;101827.53;5058026;28;45345;-65
2021/07/16 09:11:39;;;;;;;;;0.50;0.00;;;;;22.67;55.58;101823.09;5058360;28;45388;-65
2021/07/16 09:14:05;;;;;;;;;1.00;1.00;;;;;22.67;55.36;101828.41;5058682;28;45349;-65
2021/07/16 09:16:30;;;;;;;;;1.00;1.00;;;;;22.63;55.25;101821.38;5058007;28;46367;-65
2021/07/16 09:18:59;;;;;;;;;0.25;0.25;;;;;22.68;55.21;101837.22;5057519;28;61454;-65
2021/07/16 09:21:24;;;;;;;;;1.00;1.00;;;;;22.67;55.25;101831.06;5058075;28;45348;-65
2021/07/16 09:23:49;;;;;;;;;1.00;1.00;;;;;22.68;55.45;101830.16;5057966;28;48374;-65
2021/07/16 09:26:26;;;;;;;;;0.75;0.75;;;;;22.68;55.42;101840.78;5057801;28;50594;-64
2021/07/16 09:28:51;;;;;;;;;1.00;1.00;;;;;22.68;55.21;101832.81;5057826;28;45325;-65
2021/07/16 09:31:23;;;;;;;;;1.00;1.00;;;;;22.67;55.20;101832.84;5057762;28;45304;-65
2021/07/16 09:33:49;;;;;;;;;0.00;0.00;;;;;22.68;55.24;101840.78;5058162;28;45549;-65
2021/07/16 09:36:38;;;;;;;;;1.00;1.00;;;;;22.68;55.63;101835.47;5057506;28;46538;-65
2021/07/16 09:39:16;;;;;;;;;1.00;1.00;;;;;22.68;55.32;101838.13;5050186;28;45431;-65
2021/07/16 09:41:51;;;;;;;;;0.25;0.25;;;;;22.68;55.47;101832.81;5039905;28;45238;-65
2021/07/16 09:44:26;;;;;;;;;1.00;0.00;;;;;22.68;55.14;101840.78;5058123;28;45461;-65
2021/07/16 09:47:17;;;;;;;;;0.00;0.00;;;;;22.68;54.91;101846.06;5057426;28;46005;-65
2021/07/16 09:50:05;;;;;;;;;3.00;1.00;;;;;22.69;55.18;101853.09;5057628;28;45516;-65
2021/07/16 09:52:30;;;;;;;;;1.00;1.00;;;;;22.68;55.05;101856.66;5057668;28;45340;-65
2021/07/16 09:55:16;;;;;;;;;0.50;0.50;;;;;22.69;55.18;101853.09;5057785;28;45524;-64
2021/07/16 09:57:46;;;;;;;;;0.25;0.25;;;;;22.68;55.13;101851.38;5075504;28;47114;-64
2021/07/16 10:00:15;;;;;;;;;1.00;1.00;;;;;22.68;54.92;101854.03;5077756;28;45452;-65
2021/07/16 10:02:47;;;;;;;;;2.00;0.00;;;;;22.69;55.11;101854.88;5077587;28;45635;-64
2021/07/16 10:05:13;;;;;;;;;1.00;1.00;;;;;22.68;55.09;101861.06;5060700;28;45413;-65
2021/07/16 10:07:42;;;;;;;;;0.25;0.25;;;;;22.68;54.90;101861.97;5076850;28;47062;-64
2021/07/16 10:10:12;;;;;;;;;0.50;0.50;;;;;22.69;55.05;101854.88;5059666;28;45380;-65
2021/07/16 10:12:38;;;;;;;;;1.00;1.00;;;;;22.68;55.17;101855.78;5059597;28;45405;-65
2021/07/16 10:15:03;;;;;;;;;1.00;1.00;;;;;22.67;55.02;101857.56;5059550;28;45442;-65
2021/07/16 10:17:29;;;;;;;;;1.00;1.00;;;;;22.68;55.20;101858.41;5077105;28;45522;-64
2021/07/16 10:19:54;;;;;;;;;1.00;1.00;;;;;22.67;54.91;101860.19;5042371;28;52335;-65
2021/07/16 10:22:19;;;;;;;;;1.00;1.00;;;;;22.68;55.16;101861.97;5041956;28;56223;-64
2021/07/16 10:24:45;;;;;;;;;2.75;0.25;;;;;22.69;55.32;101868.13;5077360;28;47513;-64
2021/07/16 10:27:10;;;;;;;;;1.00;1.00;;;;;22.66;54.94;101854.91;5042480;28;47509;-65
2021/07/16 10:29:42;;;;;;;;;2.00;1.00;;;;;22.68;54.78;101861.97;5042014;28;54419;-64
2021/07/16 10:32:10;;;;;;;;;1.00;1.00;;;;;22.68;54.79;101869.91;5077344;28;45532;-64
2021/07/16 10:34:40;;;;;;;;;1.00;1.00;;;;;22.68;54.70;101866.38;5077076;28;47009;-65
2021/07/16 10:37:09;;;;;;;;;2.00;1.00;;;;;22.67;54.87;101873.47;5077005;28;47019;-64
2021/07/16 10:39:45;;;;;;;;;0.75;0.75;;;;;22.67;54.80;101880.53;5059004;28;45413;-65
2021/07/16 10:42:25;;;;;;;;;1.00;1.00;;;;;22.68;54.67;101882.28;5077266;28;45305;-65
2021/07/16 10:44:51;;;;;;;;;2.00;1.00;;;;;22.68;54.83;101887.56;5077318;28;45416;-65
2021/07/16 10:47:43;;;;;;;;;1.00;1.00;;;;;22.67;55.00;101886.72;5076433;28;46552;-64
2021/07/16 10:50:13;;;;;;;;;1.00;1.00;;;;;22.65;54.88;101891.13;5072597;28;45401;-65
2021/07/16 10:52:51;;;;;;;;;1.00;1.00;;;;;22.67;54.49;101899.09;5077124;28;45527;-65
2021/07/16 10:55:40;;;;;;;;;1.00;1.00;;;;;22.66;54.84;101898.19;5076685;28;45464;-65
2021/07/16 10:58:19;;;;;;;;;0.25;0.25;;;;;22.66;54.81;101889.38;5062252;28;45531;-65
2021/07/16 11:00:45;;;;;;;;;2.00;2.00;;;;;22.66;54.67;101894.69;5076639;28;45582;-65
2021/07/16 11:03:10;;;;;;;;;1.00;1.00;;;;;22.64;54.57;101897.34;5076923;28;45419;-67
2021/07/16 11:05:39;;;;;;;;;1.25;1.25;;;;;22.64;54.85;101902.63;5077349;28;45451;-65
2021/07/16 11:08:05;;;;;;;;;2.25;2.00;;;;;22.65;54.89;101914.09;5076563;28;47494;-65
2021/07/16 11:10:45;;;;;;;;;1.00;1.00;;;;;22.64;54.60;101910.59;5076598;28;45692;-65
2021/07/16 11:13:38;;;;;;;;;1.00;1.00;;;;;22.64;54.59;101918.53;5076997;28;45351;-65
2021/07/16 11:16:16;;;;;;;;;2.00;1.00;;;;;22.64;54.25;101917.63;5076650;28;45337;-65
2021/07/16 11:19:02;;;;;;;;;3.50;2.00;;;;;22.64;54.46;101912.34;5076074;27;47428;-65
2021/07/16 11:21:38;;;;;;;;;3.25;2.00;;;;;22.62;54.73;101915.00;5079312;28;45439;-65
2021/07/16 11:24:03;;;;;;;;;1.25;1.25;;;;;22.63;54.20;101919.41;5080257;28;45978;-65